createdAt,value
2023-04-14T00:02:07.054Z,5.18
2023-04-14T00:04:34.327Z,5.32
2023-04-14T00:07:01.672Z,3.75
2023-04-14T00:09:28.825Z,3.83
2023-04-14T00:11:57.274Z,4.05
2023-04-14T00:14:24.516Z,4.32
2023-04-14T00:16:51.744Z,4.38
2023-04-14T00:19:18.808Z,3.78
2023-04-14T00:21:45.786Z,3.95
2023-04-14T00:24:12.809Z,3.95
2023-04-14T00:26:39.829Z,3.92
2023-04-14T00:29:06.900Z,3.30
2023-04-14T00:31:34.506Z,3.83
2023-04-14T00:34:01.515Z,4.10
2023-04-14T00:36:29.057Z,3.65
2023-04-14T00:39:00.406Z,3.35
2023-04-14T00:41:33.149Z,3.45
2023-04-14T00:46:29.908Z,4.15
2023-04-14T00:48:57.421Z,4.85
2023-04-14T00:51:25.125Z,5.13
2023-04-14T00:53:54.208Z,3.55
2023-04-14T00:56:22.251Z,3.47
2023-04-14T00:58:51.838Z,3.63
2023-04-14T01:01:20.262Z,3.75
2023-04-14T01:03:48.374Z,3.90
2023-04-14T01:06:15.771Z,4.25
2023-04-14T01:08:42.844Z,5.15
2023-04-14T01:11:21.562Z,4.22
2023-04-14T01:14:12.537Z,3.83
2023-04-14T01:16:45.398Z,4.03
2023-04-14T01:19:20.625Z,3.65
2023-04-14T01:21:54.329Z,3.92
2023-04-14T01:25:11.712Z,4.03
2023-04-14T01:28:32.558Z,3.92
2023-04-14T01:31:26.360Z,4.88
2023-04-14T01:34:21.120Z,4.70
2023-04-14T01:36:57.017Z,4.13
2023-04-14T01:39:30.489Z,4.13
2023-04-14T01:42:02.120Z,3.45
2023-04-14T01:44:31.217Z,5.53
2023-04-14T01:47:04.449Z,5.47
2023-04-14T01:49:33.895Z,4.80
2023-04-14T01:52:04.031Z,5.00
2023-04-14T01:54:33.325Z,3.42
2023-04-14T01:57:02.753Z,3.80
2023-04-14T01:59:33.915Z,4.95
2023-04-14T02:02:07.819Z,3.88
2023-04-14T02:04:36.401Z,3.80
2023-04-14T02:07:05.792Z,4.32
2023-04-14T02:09:34.266Z,3.22
2023-04-14T02:12:04.692Z,4.22
2023-04-14T02:14:32.964Z,3.95
2023-04-14T02:17:02.488Z,5.00
2023-04-14T02:19:30.699Z,3.80
2023-04-14T02:21:59.248Z,4.18
2023-04-14T02:24:26.666Z,4.57
2023-04-14T02:27:07.354Z,4.50
2023-04-14T02:29:36.231Z,4.80
2023-04-14T02:32:05.600Z,3.60
2023-04-14T02:34:38.302Z,4.07
2023-04-14T02:37:23.204Z,4.90
2023-04-14T02:39:55.563Z,5.53
2023-04-14T02:42:26.956Z,4.50
2023-04-14T02:45:04.381Z,4.55
2023-04-14T02:47:35.757Z,4.90
2023-04-14T02:50:06.325Z,4.85
2023-04-14T02:52:37.546Z,5.32
2023-04-14T02:55:06.172Z,4.57
2023-04-14T02:57:33.912Z,4.55
2023-04-14T03:00:03.612Z,4.00
2023-04-14T03:02:36.091Z,3.10
2023-04-14T03:05:08.869Z,5.50
2023-04-14T03:07:44.839Z,9.85
2023-04-14T03:10:15.791Z,9.10
2023-04-14T03:12:45.427Z,6.90
2023-04-14T03:15:12.590Z,5.43
2023-04-14T03:17:40.333Z,6.38
2023-04-14T03:20:09.780Z,3.75
2023-04-14T03:22:40.744Z,3.75
2023-04-14T03:25:12.347Z,3.58
2023-04-14T03:27:42.082Z,4.40
2023-04-14T03:30:12.258Z,3.70
2023-04-14T03:32:42.344Z,3.88
2023-04-14T03:35:15.373Z,3.65
2023-04-14T03:37:43.852Z,4.30
2023-04-14T03:40:13.595Z,3.85
2023-04-14T03:42:44.710Z,3.63
2023-04-14T03:45:13.333Z,3.45
2023-04-14T03:47:42.015Z,4.05
2023-04-14T03:50:11.190Z,3.97
2023-04-14T03:52:42.584Z,3.95
2023-04-14T03:55:12.471Z,3.10
2023-04-14T03:57:43.910Z,3.67
2023-04-14T04:00:15.195Z,3.63
2023-04-14T04:02:44.769Z,3.72
2023-04-14T04:05:13.092Z,2.92
2023-04-14T04:07:41.858Z,4.00
2023-04-14T04:10:10.407Z,3.78
2023-04-14T04:12:38.759Z,3.97
2023-04-14T04:15:08.870Z,4.47
2023-04-14T04:17:38.076Z,4.75
2023-04-14T04:20:09.987Z,4.85
2023-04-14T04:22:40.097Z,8.10
2023-04-14T04:25:11.277Z,5.40
2023-04-14T04:27:42.390Z,7.35
2023-04-14T04:30:16.921Z,7.05
2023-04-14T04:32:44.227Z,6.07
2023-04-14T04:35:12.570Z,6.10
2023-04-14T04:37:42.134Z,7.97
2023-04-14T04:40:10.060Z,6.18
2023-04-14T04:42:42.089Z,6.30
2023-04-14T04:45:11.189Z,7.68
2023-04-14T04:47:39.414Z,6.35
2023-04-14T04:50:07.320Z,7.63
2023-04-14T04:52:34.382Z,6.35
2023-04-14T04:55:01.418Z,6.53
2023-04-14T04:57:28.428Z,6.20
2023-04-14T04:59:55.513Z,5.10
2023-04-14T05:02:22.973Z,5.28
2023-04-14T05:04:50.656Z,6.30
2023-04-14T05:07:17.961Z,5.38
2023-04-14T05:09:45.066Z,5.75
2023-04-14T05:12:12.064Z,4.70
2023-04-14T05:14:39.098Z,4.18
2023-04-14T05:17:06.096Z,5.35
2023-04-14T05:19:33.105Z,5.55
2023-04-14T05:22:01.536Z,4.93
2023-04-14T05:24:28.556Z,4.03
2023-04-14T05:27:12.585Z,4.22
2023-04-14T05:29:41.403Z,4.72
2023-04-14T05:32:08.758Z,4.22
2023-04-14T05:34:35.844Z,4.50
2023-04-14T05:37:03.084Z,4.88
2023-04-14T05:39:30.171Z,4.45
2023-04-14T05:41:57.172Z,4.50
2023-04-14T05:44:24.312Z,4.57
2023-04-14T05:46:51.708Z,4.57
2023-04-14T05:49:18.754Z,5.43
2023-04-14T05:51:45.934Z,5.40
2023-04-14T05:54:12.964Z,5.28
2023-04-14T05:56:40.167Z,6.93
2023-04-14T05:59:07.257Z,7.95
2023-04-14T06:01:34.321Z,7.35
2023-04-14T06:04:03.693Z,8.07
2023-04-14T06:06:32.516Z,35.17
2023-04-14T06:08:59.838Z,6.97
2023-04-14T06:11:26.967Z,5.63
2023-04-14T06:13:53.965Z,6.25
2023-04-14T06:16:21.045Z,6.35
2023-04-14T06:18:48.121Z,7.38
2023-04-14T06:21:15.370Z,9.15
2023-04-14T06:23:42.435Z,6.43
2023-04-14T06:26:09.503Z,6.70
2023-04-14T06:28:36.510Z,5.95
2023-04-14T06:31:03.901Z,6.07
2023-04-14T06:33:31.650Z,5.13
2023-04-14T06:35:58.801Z,6.20
2023-04-14T06:38:26.977Z,5.85
2023-04-14T06:40:54.050Z,5.13
2023-04-14T06:43:21.173Z,4.88
2023-04-14T06:45:50.753Z,5.63
2023-04-14T06:48:17.973Z,5.50
2023-04-14T06:50:54.173Z,6.35
2023-04-14T06:53:21.902Z,6.53
2023-04-14T06:55:51.154Z,5.40
2023-04-14T06:58:18.532Z,5.07
2023-04-14T07:00:45.652Z,4.25
2023-04-14T07:03:12.820Z,4.75
2023-04-14T07:05:39.980Z,4.55
2023-04-14T07:08:07.133Z,3.90
2023-04-14T07:10:34.187Z,4.60
2023-04-14T07:13:01.178Z,4.80
2023-04-14T07:15:29.985Z,4.65
2023-04-14T07:17:59.806Z,4.10
2023-04-14T07:20:29.034Z,4.93
2023-04-14T07:22:56.140Z,4.50
2023-04-14T07:25:23.190Z,5.30
2023-04-14T07:28:02.136Z,4.88
2023-04-14T07:30:30.591Z,5.28
2023-04-14T07:32:58.282Z,5.07
2023-04-14T07:35:26.225Z,4.15
2023-04-14T07:37:53.239Z,4.60
2023-04-14T07:40:20.315Z,4.28
2023-04-14T07:42:47.719Z,3.53
2023-04-14T07:45:14.746Z,4.18
2023-04-14T07:47:41.852Z,4.18
2023-04-14T07:50:09.150Z,4.57
2023-04-14T07:52:36.950Z,3.80
2023-04-14T07:55:04.505Z,3.45
2023-04-14T07:57:33.777Z,3.83
2023-04-14T08:00:00.906Z,4.18
2023-04-14T08:02:28.124Z,5.88
2023-04-14T08:04:55.290Z,4.60
2023-04-14T08:07:22.303Z,4.60
2023-04-14T08:09:49.642Z,3.47
2023-04-14T08:12:16.646Z,3.90
2023-04-14T08:14:43.755Z,3.28
2023-04-14T08:17:10.968Z,3.22
2023-04-14T08:19:38.013Z,3.80
2023-04-14T08:22:05.372Z,3.10
2023-04-14T08:24:32.876Z,3.40
2023-04-14T08:27:02.160Z,2.70
2023-04-14T08:29:29.226Z,2.65
2023-04-14T08:31:56.241Z,2.30
2023-04-14T08:34:28.598Z,2.00
2023-04-14T08:39:23.699Z,2.15
2023-04-14T08:41:53.416Z,3.30
2023-04-14T08:44:21.884Z,2.00
2023-04-14T08:46:52.551Z,1.90
2023-04-14T08:49:27.203Z,1.45
2023-04-14T08:51:55.282Z,2.35
2023-04-14T08:54:22.624Z,2.60
2023-04-14T08:56:49.934Z,1.27
2023-04-14T08:59:17.265Z,1.27
2023-04-14T09:01:46.058Z,1.83
2023-04-14T09:04:14.550Z,1.90
2023-04-14T09:06:41.845Z,1.55
2023-04-14T09:09:10.590Z,2.30
2023-04-14T09:11:38.009Z,2.03
2023-04-14T09:14:06.045Z,1.42
2023-04-14T09:16:33.363Z,1.70
2023-04-14T09:19:06.974Z,2.17
2023-04-14T09:21:51.554Z,2.22
2023-04-14T09:24:31.260Z,3.20
2023-04-14T09:27:05.106Z,1.60
2023-04-14T09:32:00.237Z,1.50
2023-04-14T09:34:28.018Z,2.10
2023-04-14T09:37:02.436Z,1.08
2023-04-14T09:39:29.725Z,1.15
2023-04-14T09:41:56.935Z,1.48
2023-04-14T09:44:24.078Z,1.95
2023-04-14T09:47:02.274Z,1.80
2023-04-14T09:49:29.923Z,1.50
2023-04-14T09:52:09.340Z,1.15
2023-04-14T09:54:36.416Z,1.45
2023-04-14T09:57:04.099Z,2.60
2023-04-14T09:59:38.660Z,1.92
2023-04-14T10:02:07.877Z,1.27
2023-04-14T10:04:36.644Z,2.40
2023-04-14T10:07:07.838Z,1.30
2023-04-14T10:09:37.769Z,2.00
2023-04-14T10:12:09.978Z,1.98
2023-04-14T10:14:38.816Z,1.42
2023-04-14T10:17:07.164Z,2.10
2023-04-14T10:19:36.149Z,1.35
2023-04-14T10:22:05.881Z,1.30
2023-04-14T10:24:33.703Z,1.40
2023-04-14T10:27:02.940Z,1.27
2023-04-14T10:29:30.869Z,1.02
2023-04-14T10:32:05.740Z,1.27
2023-04-14T10:34:33.665Z,1.20
2023-04-14T10:37:14.342Z,1.08
2023-04-14T10:39:42.849Z,1.90
2023-04-14T10:42:10.019Z,1.77
2023-04-14T10:44:37.134Z,1.50
2023-04-14T10:47:07.429Z,1.60
2023-04-14T10:49:37.156Z,1.85
2023-04-14T10:52:29.739Z,1.88
2023-04-14T10:55:08.157Z,1.38
2023-04-14T10:57:43.446Z,2.38
2023-04-14T11:00:19.687Z,2.53
2023-04-14T11:03:08.195Z,1.80
2023-04-14T11:05:35.701Z,1.67
2023-04-14T11:08:13.557Z,1.67
2023-04-14T11:10:41.817Z,2.28
2023-04-14T11:13:12.668Z,1.23
2023-04-14T11:15:46.847Z,1.38
2023-04-14T11:18:16.650Z,1.58
2023-04-14T11:20:44.218Z,1.48
2023-04-14T11:23:16.301Z,1.27
2023-04-14T11:25:43.865Z,1.20
2023-04-14T11:28:11.286Z,1.60
2023-04-14T11:30:40.592Z,1.20
2023-04-14T11:33:07.681Z,1.52
2023-04-14T11:35:34.808Z,1.73
2023-04-14T11:38:01.970Z,1.30
2023-04-14T11:40:29.143Z,1.80
2023-04-14T11:42:57.845Z,1.60
2023-04-14T11:45:31.773Z,2.05
2023-04-14T11:48:00.118Z,1.23
2023-04-14T11:50:30.149Z,1.40
2023-04-14T11:52:59.455Z,1.25
2023-04-14T11:55:27.256Z,0.95
2023-04-14T11:57:58.063Z,2.28
2023-04-14T12:00:25.414Z,1.20
2023-04-14T12:02:52.746Z,1.08
2023-04-14T12:05:31.553Z,1.58
2023-04-14T12:08:12.201Z,0.82
2023-04-14T12:10:41.972Z,1.42
2023-04-14T12:13:11.167Z,1.35
2023-04-14T12:15:42.221Z,1.40
2023-04-14T12:18:13.707Z,1.55
2023-04-14T12:20:54.332Z,1.98
2023-04-14T12:23:21.900Z,0.75
2023-04-14T12:25:49.472Z,1.45
2023-04-14T12:28:24.908Z,0.88
2023-04-14T12:30:54.186Z,1.15
2023-04-14T12:33:27.800Z,1.40
2023-04-14T12:36:10.115Z,1.00
2023-04-14T12:38:37.601Z,1.58
2023-04-14T12:41:05.364Z,1.63
2023-04-14T12:43:35.358Z,1.52
2023-04-14T12:46:07.849Z,1.80
2023-04-14T12:48:44.482Z,1.77
2023-04-14T12:51:13.326Z,1.02
2023-04-14T12:53:41.299Z,1.30
2023-04-14T12:56:09.330Z,1.25
2023-04-14T12:58:37.911Z,0.80
2023-04-14T13:01:11.248Z,1.27
2023-04-14T13:03:46.895Z,1.20
2023-04-14T13:06:16.484Z,1.02
2023-04-14T13:08:46.056Z,1.17
2023-04-14T13:11:16.940Z,1.83
2023-04-14T13:13:45.477Z,1.23
2023-04-14T13:16:16.807Z,1.50
2023-04-14T13:21:13.280Z,0.90
2023-04-14T13:23:40.950Z,1.05
2023-04-14T13:26:08.378Z,1.38
2023-04-14T13:28:36.440Z,1.85
2023-04-14T13:31:03.886Z,1.05
2023-04-14T13:33:33.358Z,1.02
2023-04-14T13:36:01.956Z,1.45
2023-04-14T13:38:29.264Z,1.15
2023-04-14T13:40:56.383Z,1.10
2023-04-14T13:43:23.487Z,1.92
2023-04-14T13:45:50.704Z,1.40
2023-04-14T13:48:17.923Z,0.88
2023-04-14T13:50:44.927Z,0.73
2023-04-14T13:53:12.248Z,1.10
2023-04-14T13:55:39.449Z,0.80
2023-04-14T13:58:06.606Z,1.20
2023-04-14T14:00:33.908Z,1.23
2023-04-14T14:03:01.202Z,1.10
2023-04-14T14:05:28.760Z,1.63
2023-04-14T14:07:56.480Z,1.83
2023-04-14T14:10:23.850Z,1.30
2023-04-14T14:12:51.637Z,0.82
2023-04-14T14:15:18.802Z,0.80
2023-04-14T14:17:46.091Z,0.80
2023-04-14T14:20:13.165Z,1.50
2023-04-14T14:22:40.367Z,0.95
2023-04-14T14:25:19.396Z,1.42
2023-04-14T14:27:48.342Z,0.75
2023-04-14T14:30:15.786Z,1.30
2023-04-14T14:32:43.004Z,0.88
2023-04-14T14:35:10.375Z,1.55
2023-04-14T14:37:37.519Z,1.23
2023-04-14T14:40:05.523Z,1.08
2023-04-14T14:42:32.621Z,1.23
2023-04-14T14:44:59.774Z,1.38
2023-04-14T14:47:28.402Z,1.13
2023-04-14T14:50:01.673Z,1.10
2023-04-14T14:52:36.598Z,1.10
2023-04-14T14:55:04.742Z,1.27
2023-04-14T14:57:31.773Z,1.48
2023-04-14T14:59:58.841Z,1.73
2023-04-14T15:02:26.458Z,0.90
2023-04-14T15:04:54.269Z,1.05
2023-04-14T15:07:21.344Z,1.02
2023-04-14T15:09:49.868Z,2.20
2023-04-14T15:12:17.466Z,1.50
2023-04-14T15:14:44.743Z,0.90
2023-04-14T15:17:11.865Z,1.20
2023-04-14T15:19:39.142Z,1.02
2023-04-14T15:22:06.178Z,1.38
2023-04-14T15:24:33.312Z,1.23
2023-04-14T15:27:02.460Z,1.02
2023-04-14T15:29:30.442Z,1.15
2023-04-14T15:31:57.531Z,2.40
2023-04-14T15:34:25.243Z,1.00
2023-04-14T15:36:52.324Z,1.08
2023-04-14T15:39:19.400Z,1.08
2023-04-14T15:41:47.537Z,1.00
2023-04-14T15:44:14.622Z,0.93
2023-04-14T15:46:41.713Z,0.90
2023-04-14T15:49:08.769Z,1.52
2023-04-14T15:51:35.805Z,0.95
2023-04-14T15:54:03.428Z,0.73
2023-04-14T15:56:31.088Z,0.70
2023-04-14T15:58:58.147Z,0.90
2023-04-14T16:01:25.265Z,0.80
2023-04-14T16:04:22.133Z,0.95
2023-04-14T16:06:40.090Z,1.13
2023-04-14T16:09:07.216Z,1.10
2023-04-14T16:11:34.464Z,1.02
2023-04-14T16:14:01.770Z,0.85
2023-04-14T16:16:29.049Z,1.02
2023-04-14T16:18:56.112Z,1.13
2023-04-14T16:21:23.168Z,0.80
2023-04-14T16:23:50.706Z,0.75
2023-04-14T16:26:17.750Z,1.23
2023-04-14T16:28:45.308Z,1.17
2023-04-14T16:31:12.846Z,1.05
2023-04-14T16:33:39.840Z,0.95
2023-04-14T16:36:07.635Z,1.10
2023-04-14T16:38:34.835Z,1.17
2023-04-14T16:41:02.297Z,1.00
2023-04-14T16:43:29.767Z,1.23
2023-04-14T16:46:04.150Z,0.85
2023-04-14T16:48:35.778Z,1.02
2023-04-14T16:51:04.516Z,0.90
2023-04-14T16:53:31.672Z,1.10
2023-04-14T16:56:04.002Z,1.20
2023-04-14T16:58:31.234Z,1.42
2023-04-14T17:00:58.707Z,0.80
2023-04-14T17:03:25.927Z,0.85
2023-04-14T17:05:53.443Z,1.08
2023-04-14T17:08:20.684Z,0.88
2023-04-14T17:10:47.874Z,0.90
2023-04-14T17:13:15.561Z,1.67
2023-04-14T17:15:43.883Z,1.23
2023-04-14T17:18:11.813Z,0.95
2023-04-14T17:20:40.853Z,1.13
2023-04-14T17:23:09.288Z,0.70
2023-04-14T17:25:37.273Z,0.93
2023-04-14T17:28:06.007Z,1.38
2023-04-14T17:30:34.708Z,1.02
2023-04-14T17:33:03.677Z,0.95
2023-04-14T17:35:33.407Z,1.92
2023-04-14T17:38:00.835Z,1.00
2023-04-14T17:40:28.320Z,1.10
2023-04-14T17:42:55.632Z,0.82
2023-04-14T17:45:23.206Z,0.80
2023-04-14T17:47:52.320Z,1.10
2023-04-14T17:50:21.000Z,1.27
2023-04-14T17:52:49.901Z,2.13
2023-04-14T17:55:17.605Z,3.20
2023-04-14T17:57:47.948Z,1.42
2023-04-14T18:00:15.304Z,1.40
2023-04-14T18:02:45.120Z,1.15
2023-04-14T18:05:13.116Z,0.95
2023-04-14T18:07:41.910Z,1.25
2023-04-14T18:10:09.306Z,1.13
2023-04-14T18:12:36.696Z,0.95
2023-04-14T18:15:05.260Z,1.77
2023-04-14T18:17:32.372Z,1.38
2023-04-14T18:19:59.536Z,0.80
2023-04-14T18:22:27.325Z,1.33
2023-04-14T18:24:54.448Z,1.38
2023-04-14T18:29:53.016Z,1.67
2023-04-14T18:32:20.650Z,1.80
2023-04-14T18:34:48.317Z,1.75
2023-04-14T18:37:15.801Z,1.33
2023-04-14T18:39:43.483Z,2.60
2023-04-14T18:42:11.327Z,1.35
2023-04-14T18:44:38.460Z,1.60
2023-04-14T18:47:05.493Z,1.50
2023-04-14T18:49:32.560Z,1.38
2023-04-14T18:51:59.561Z,0.90
2023-04-14T18:54:26.715Z,1.55
2023-04-14T18:56:53.757Z,1.40
2023-04-14T18:59:21.973Z,1.15
2023-04-14T19:01:49.047Z,1.40
2023-04-14T19:04:16.151Z,1.73
2023-04-14T19:06:43.861Z,2.00
2023-04-14T19:09:11.092Z,4.80
2023-04-14T19:11:38.114Z,1.70
2023-04-14T19:14:05.430Z,2.22
2023-04-14T19:16:32.879Z,1.50
2023-04-14T19:19:00.790Z,2.85
2023-04-14T19:21:28.278Z,2.13
2023-04-14T19:23:57.023Z,2.33
2023-04-14T19:26:24.249Z,2.58
2023-04-14T19:28:53.315Z,2.90
2023-04-14T19:31:21.352Z,2.55
2023-04-14T19:33:49.153Z,3.05
2023-04-14T19:36:17.286Z,2.72
2023-04-14T19:38:44.480Z,2.30
2023-04-14T19:41:12.004Z,2.78
2023-04-14T19:43:39.262Z,2.15
2023-04-14T19:46:07.824Z,2.30
2023-04-14T19:48:35.072Z,2.45
2023-04-14T19:51:02.357Z,2.55
2023-04-14T19:53:30.053Z,2.20
2023-04-14T19:55:58.424Z,2.50
2023-04-14T19:58:28.417Z,2.33
2023-04-14T20:00:58.858Z,2.35
2023-04-14T20:03:26.852Z,2.25
2023-04-14T20:05:56.639Z,2.50
2023-04-14T20:08:25.202Z,2.33
2023-04-14T20:10:54.219Z,2.63
2023-04-14T20:13:23.755Z,2.17
2023-04-14T20:15:53.783Z,2.33
2023-04-14T20:18:22.412Z,2.63
2023-04-14T20:20:50.076Z,2.63
2023-04-14T20:23:17.272Z,2.10
2023-04-14T20:25:45.456Z,2.63
2023-04-14T20:28:13.823Z,2.75
2023-04-14T20:30:43.223Z,2.88
2023-04-14T20:33:11.167Z,2.92
2023-04-14T20:35:40.254Z,3.30
2023-04-14T20:38:07.528Z,4.00
2023-04-14T20:40:35.346Z,3.50
2023-04-14T20:43:02.529Z,4.47
2023-04-14T20:45:29.889Z,6.30
2023-04-14T20:47:57.140Z,6.35
2023-04-14T20:50:24.436Z,6.28
2023-04-14T20:52:51.551Z,6.00
2023-04-14T20:55:19.436Z,4.25
2023-04-14T20:57:47.940Z,4.38
2023-04-14T21:00:16.621Z,4.10
2023-04-14T21:02:44.294Z,3.85
2023-04-14T21:05:12.590Z,4.28
2023-04-14T21:07:39.967Z,4.03
2023-04-14T21:10:10.252Z,3.13
2023-04-14T21:13:49.586Z,3.35
2023-04-14T21:15:47.955Z,3.55
2023-04-14T21:18:12.952Z,3.63
2023-04-14T21:20:40.023Z,3.55
2023-04-14T21:23:07.217Z,3.55
2023-04-14T21:25:35.412Z,4.95
2023-04-14T21:28:03.627Z,4.20
2023-04-14T21:30:31.581Z,4.18
2023-04-14T21:32:59.085Z,3.97
2023-04-14T21:35:26.202Z,4.07
2023-04-14T21:37:53.231Z,3.10
2023-04-14T21:40:20.382Z,3.47
2023-04-14T21:42:47.453Z,3.15
2023-04-14T21:45:14.565Z,3.25
2023-04-14T21:47:41.827Z,3.03
2023-04-14T21:50:09.683Z,3.65
2023-04-14T21:52:36.985Z,4.03
2023-04-14T21:55:04.312Z,4.00
2023-04-14T21:57:48.300Z,4.50
2023-04-14T22:00:17.761Z,4.07
2023-04-14T22:02:45.607Z,4.32
2023-04-14T22:05:16.117Z,3.88
2023-04-14T22:07:43.130Z,3.80
2023-04-14T22:10:11.904Z,3.63
2023-04-14T22:12:42.544Z,3.50
2023-04-14T22:15:10.538Z,3.78
2023-04-14T22:17:38.834Z,3.30
2023-04-14T22:20:06.753Z,4.63
2023-04-14T22:22:34.707Z,4.30
2023-04-14T22:25:03.596Z,4.35
2023-04-14T22:27:31.312Z,3.55
2023-04-14T22:29:58.339Z,3.95
2023-04-14T22:32:25.693Z,2.95
2023-04-14T22:34:52.910Z,3.17
2023-04-14T22:37:19.905Z,3.72
2023-04-14T22:39:46.982Z,4.20
2023-04-14T22:42:13.993Z,3.83
2023-04-14T22:44:41.185Z,3.05
2023-04-14T22:47:08.491Z,3.50
2023-04-14T22:49:35.595Z,3.70
2023-04-14T22:52:02.773Z,3.70
2023-04-14T22:54:29.862Z,3.92
2023-04-14T22:56:57.057Z,3.40
2023-04-14T22:59:25.711Z,3.50
2023-04-14T23:01:53.904Z,3.05
2023-04-14T23:04:21.158Z,3.22
2023-04-14T23:06:48.666Z,3.80
2023-04-14T23:09:16.074Z,2.95
2023-04-14T23:11:43.200Z,3.90
2023-04-14T23:14:10.500Z,4.25
2023-04-14T23:16:37.568Z,3.05
2023-04-14T23:19:04.830Z,3.60
2023-04-14T23:21:32.195Z,3.67
2023-04-14T23:23:59.196Z,3.53
2023-04-14T23:26:26.352Z,2.88
2023-04-14T23:28:53.546Z,3.20
2023-04-14T23:31:20.939Z,3.75
2023-04-14T23:33:50.803Z,3.40
2023-04-14T23:36:18.690Z,3.80
2023-04-14T23:38:45.962Z,3.47
2023-04-14T23:41:13.314Z,3.42
2023-04-14T23:43:40.420Z,3.13
2023-04-14T23:46:07.446Z,3.30
2023-04-14T23:48:34.464Z,3.47
2023-04-14T23:51:15.020Z,3.70
2023-04-14T23:53:49.032Z,3.85
2023-04-14T23:56:16.359Z,3.85
2023-04-14T23:58:43.772Z,3.88
